createdAt,value
2022-10-01T00:01:04.874Z,7.40
2022-10-01T00:03:31.829Z,6.10
2022-10-01T00:06:02.567Z,5.30
2022-10-01T00:08:30.553Z,6.83
2022-10-01T00:10:58.484Z,6.00
2022-10-01T00:13:25.834Z,4.40
2022-10-01T00:15:53.298Z,5.83
2022-10-01T00:18:19.834Z,6.37
2022-10-01T00:20:46.464Z,6.37
2022-10-01T00:23:14.799Z,5.33
2022-10-01T00:25:41.707Z,4.73
2022-10-01T00:28:08.402Z,6.30
2022-10-01T00:30:39.611Z,6.57
2022-10-01T00:33:06.828Z,6.63
2022-10-01T00:35:33.407Z,6.33
2022-10-01T00:37:59.871Z,5.23
2022-10-01T00:40:26.457Z,5.20
2022-10-01T00:42:52.939Z,5.57
2022-10-01T00:45:19.437Z,5.60
2022-10-01T00:47:51.852Z,5.40
2022-10-01T00:50:26.124Z,5.93
2022-10-01T00:52:57.060Z,5.53
2022-10-01T00:55:28.543Z,4.93
2022-10-01T00:57:55.451Z,4.60
2022-10-01T01:00:23.083Z,5.17
2022-10-01T01:02:49.864Z,6.07
2022-10-01T01:05:16.529Z,5.07
2022-10-01T01:07:46.930Z,4.27
2022-10-01T01:10:24.274Z,5.40
2022-10-01T01:13:01.949Z,4.80
2022-10-01T01:15:28.372Z,4.27
2022-10-01T01:18:03.648Z,4.93
2022-10-01T01:20:51.664Z,4.33
2022-10-01T01:23:18.426Z,4.47
2022-10-01T01:26:06.235Z,4.27
2022-10-01T01:28:51.690Z,4.20
2022-10-01T01:31:25.562Z,4.50
2022-10-01T01:33:55.216Z,4.30
2022-10-01T01:36:27.628Z,4.10
2022-10-01T01:39:00.324Z,5.07
2022-10-01T01:41:32.570Z,3.37
2022-10-01T01:44:02.585Z,4.27
2022-10-01T01:46:33.325Z,5.10
2022-10-01T01:49:03.906Z,4.03
2022-10-01T01:52:00.875Z,4.20
2022-10-01T01:54:30.488Z,4.67
2022-10-01T01:56:58.596Z,3.43
2022-10-01T01:59:26.864Z,3.77
2022-10-01T02:01:53.617Z,4.07
2022-10-01T02:04:25.401Z,3.77
2022-10-01T02:07:29.606Z,3.90
2022-10-01T02:10:19.435Z,3.30
2022-10-01T02:13:16.969Z,4.20
2022-10-01T02:16:15.123Z,4.03
2022-10-01T02:18:57.135Z,4.00
2022-10-01T02:21:32.099Z,3.10
2022-10-01T02:24:39.463Z,3.27
2022-10-01T02:27:16.225Z,2.70
2022-10-01T02:29:44.993Z,2.90
2022-10-01T02:32:13.905Z,2.90
2022-10-01T02:34:41.521Z,2.70
2022-10-01T02:37:10.924Z,2.53
2022-10-01T02:39:41.391Z,2.13
2022-10-01T02:42:09.977Z,2.60
2022-10-01T02:44:42.577Z,2.60
2022-10-01T02:47:19.565Z,2.50
2022-10-01T02:49:47.414Z,1.77
2022-10-01T02:52:22.587Z,2.17
2022-10-01T02:54:58.055Z,2.13
2022-10-01T02:57:28.968Z,2.00
2022-10-01T03:00:01.142Z,1.80
2022-10-01T03:02:29.479Z,1.90
2022-10-01T03:04:59.453Z,1.97
2022-10-01T03:07:28.282Z,2.33
2022-10-01T03:09:58.723Z,2.20
2022-10-01T03:12:32.356Z,1.80
2022-10-01T03:14:59.174Z,1.70
2022-10-01T03:17:25.832Z,2.50
2022-10-01T03:19:52.572Z,2.60
2022-10-01T03:22:22.779Z,2.00
2022-10-01T03:24:53.698Z,2.10
2022-10-01T03:27:21.361Z,1.30
2022-10-01T03:29:48.055Z,2.10
2022-10-01T03:32:15.095Z,1.80
2022-10-01T03:34:41.751Z,1.80
2022-10-01T03:37:08.474Z,2.00
2022-10-01T03:39:36.110Z,1.97
2022-10-01T03:42:03.870Z,1.90
2022-10-01T03:44:30.360Z,1.70
2022-10-01T03:46:56.841Z,2.50
2022-10-01T03:49:23.413Z,2.20
2022-10-01T03:51:50.284Z,2.43
2022-10-01T03:54:18.016Z,2.10
2022-10-01T03:56:44.493Z,2.20
2022-10-01T03:59:11.939Z,2.57
2022-10-01T04:01:39.374Z,2.50
2022-10-01T04:04:06.422Z,2.07
2022-10-01T04:06:33.130Z,2.67
2022-10-01T04:08:59.596Z,3.10
2022-10-01T04:11:26.228Z,2.60
2022-10-01T04:13:52.887Z,2.93
2022-10-01T04:16:19.491Z,3.30
2022-10-01T04:18:46.038Z,2.00
2022-10-01T04:21:12.953Z,3.60
2022-10-01T04:23:39.468Z,3.13
2022-10-01T04:26:06.129Z,2.67
2022-10-01T04:28:32.711Z,2.77
2022-10-01T04:31:18.399Z,3.17
2022-10-01T04:33:45.294Z,3.57
2022-10-01T04:36:12.155Z,4.60
2022-10-01T04:38:38.645Z,3.40
2022-10-01T04:41:05.338Z,4.47
2022-10-01T04:43:31.861Z,4.63
2022-10-01T04:45:58.868Z,4.63
2022-10-01T04:48:25.555Z,5.33
2022-10-01T04:50:52.163Z,5.50
2022-10-01T04:53:18.805Z,6.40
2022-10-01T04:55:46.417Z,5.83
2022-10-01T04:58:13.080Z,6.67
2022-10-01T05:00:39.655Z,8.53
2022-10-01T05:03:06.196Z,8.07
2022-10-01T05:05:34.912Z,5.87
2022-10-01T05:08:01.962Z,6.90
2022-10-01T05:10:28.502Z,8.27
2022-10-01T05:12:55.095Z,6.93
2022-10-01T05:15:21.783Z,9.00
2022-10-01T05:17:48.393Z,9.93
2022-10-01T05:20:20.544Z,10.20
2022-10-01T05:22:47.744Z,9.25
2022-10-01T05:25:14.625Z,7.03
2022-10-01T05:27:41.222Z,6.87
2022-10-01T05:30:10.724Z,10.07
2022-10-01T05:32:37.922Z,3.40
2022-10-01T05:35:07.120Z,10.00
2022-10-01T05:37:34.480Z,7.80
2022-10-01T05:40:01.813Z,9.07
2022-10-01T05:42:28.568Z,9.82
2022-10-01T05:44:56.323Z,9.33
2022-10-01T05:47:23.257Z,10.30
2022-10-01T05:49:54.935Z,5.07
2022-10-01T05:52:21.419Z,4.67
2022-10-01T05:54:47.936Z,9.30
2022-10-01T05:57:14.484Z,11.10
2022-10-01T05:59:40.950Z,11.77
2022-10-01T06:02:09.793Z,11.93
2022-10-01T06:04:40.900Z,11.50
2022-10-01T06:07:07.774Z,13.97
2022-10-01T06:09:34.394Z,7.77
2022-10-01T06:12:01.062Z,6.60
2022-10-01T06:14:27.670Z,12.40
2022-10-01T06:16:54.789Z,13.13
2022-10-01T06:19:21.600Z,14.48
2022-10-01T06:21:50.150Z,9.02
2022-10-01T06:24:16.634Z,12.55
2022-10-01T06:26:43.749Z,13.75
2022-10-01T06:29:10.799Z,10.05
2022-10-01T06:31:53.533Z,9.37
2022-10-01T06:34:20.136Z,13.67
2022-10-01T06:36:46.658Z,14.75
2022-10-01T06:39:13.156Z,7.85
2022-10-01T06:41:40.858Z,12.38
2022-10-01T06:44:07.582Z,13.68
2022-10-01T06:46:34.046Z,12.20
2022-10-01T06:49:00.514Z,14.52
2022-10-01T06:51:45.700Z,11.05
2022-10-01T06:54:12.291Z,13.73
2022-10-01T06:56:38.807Z,13.98
2022-10-01T06:59:05.279Z,14.77
2022-10-01T07:01:32.958Z,16.70
2022-10-01T07:03:59.805Z,14.90
2022-10-01T07:06:26.396Z,13.05
2022-10-01T07:08:52.848Z,16.67
2022-10-01T07:11:19.648Z,13.07
2022-10-01T07:13:47.546Z,20.33
2022-10-01T07:16:16.537Z,19.27
2022-10-01T07:18:43.071Z,15.32
2022-10-01T07:21:09.758Z,18.45
2022-10-01T07:23:36.251Z,13.98
2022-10-01T07:26:08.825Z,15.43
2022-10-01T07:28:35.613Z,14.13
2022-10-01T07:31:11.214Z,14.30
2022-10-01T07:33:41.342Z,14.73
2022-10-01T07:36:09.414Z,15.88
2022-10-01T07:38:35.890Z,15.07
2022-10-01T07:41:03.442Z,14.88
2022-10-01T07:43:31.265Z,14.48
2022-10-01T07:46:00.412Z,11.95
2022-10-01T07:48:27.759Z,12.20
2022-10-01T07:50:54.268Z,13.10
2022-10-01T07:53:20.794Z,10.88
2022-10-01T07:55:47.267Z,10.45
2022-10-01T07:58:13.785Z,12.80
2022-10-01T08:00:40.338Z,12.48
2022-10-01T08:03:07.064Z,9.52
2022-10-01T08:05:35.794Z,9.63
2022-10-01T08:08:07.654Z,10.95
2022-10-01T08:10:36.828Z,13.07
2022-10-01T08:13:14.305Z,15.07
2022-10-01T08:15:42.296Z,14.05
2022-10-01T08:18:08.790Z,12.55
2022-10-01T08:20:35.580Z,12.05
2022-10-01T08:23:10.822Z,10.70
2022-10-01T08:25:37.661Z,10.93
2022-10-01T08:28:05.087Z,9.07
2022-10-01T08:30:31.658Z,8.63
2022-10-01T08:32:59.781Z,5.32
2022-10-01T08:35:28.412Z,8.60
2022-10-01T08:37:57.794Z,6.05
2022-10-01T08:40:24.597Z,6.80
2022-10-01T08:43:00.062Z,6.18
2022-10-01T08:45:28.751Z,6.18
2022-10-01T08:48:02.541Z,6.68
2022-10-01T08:50:38.146Z,7.82
2022-10-01T08:53:10.946Z,3.88
2022-10-01T08:55:37.941Z,6.68
2022-10-01T08:58:07.457Z,4.00
2022-10-01T09:00:36.707Z,4.80
2022-10-01T09:03:10.601Z,5.97
2022-10-01T09:05:51.262Z,7.32
2022-10-01T09:08:17.709Z,7.43
2022-10-01T09:10:54.891Z,4.28
2022-10-01T09:13:40.337Z,4.32
2022-10-01T09:16:12.855Z,3.88
2022-10-01T09:18:58.051Z,3.15
2022-10-01T09:21:52.418Z,3.60
2022-10-01T09:24:40.666Z,3.60
2022-10-01T09:27:16.475Z,3.55
2022-10-01T09:29:56.464Z,5.13
2022-10-01T09:32:27.879Z,5.40
2022-10-01T09:34:54.696Z,4.20
2022-10-01T09:37:42.544Z,3.90
2022-10-01T09:40:35.645Z,8.00
2022-10-01T09:43:08.259Z,4.10
2022-10-01T09:45:35.543Z,3.72
2022-10-01T09:48:19.763Z,3.20
2022-10-01T09:50:54.534Z,3.13
2022-10-01T17:06:30.580Z,1.80
2022-10-01T17:08:58.257Z,2.25
2022-10-01T17:11:25.539Z,2.38
2022-10-01T17:13:52.247Z,1.85
2022-10-01T17:16:34.502Z,2.47
2022-10-01T17:19:02.088Z,2.20
2022-10-01T17:21:29.608Z,1.90
2022-10-01T17:23:56.105Z,1.70
2022-10-01T17:26:22.596Z,2.20
2022-10-01T17:28:50.734Z,1.88
2022-10-01T17:31:18.205Z,2.20
2022-10-01T17:33:45.212Z,2.35
2022-10-01T17:36:11.837Z,2.53
2022-10-01T17:38:40.245Z,1.98
2022-10-01T17:41:06.855Z,2.20
2022-10-01T17:43:33.396Z,1.65
2022-10-01T17:46:01.152Z,1.98
2022-10-01T17:48:28.726Z,1.77
2022-10-01T17:51:07.134Z,2.35
2022-10-01T17:53:41.895Z,1.52
2022-10-01T17:56:13.107Z,1.83
2022-10-01T17:58:42.950Z,1.40
2022-10-01T18:01:19.522Z,1.65
2022-10-01T18:03:46.042Z,1.58
2022-10-01T18:06:14.238Z,2.00
2022-10-01T18:08:54.673Z,1.90
2022-10-01T18:11:21.971Z,1.90
2022-10-01T18:13:50.235Z,3.70
2022-10-01T18:16:19.204Z,1.70
2022-10-01T18:21:33.125Z,1.88
2022-10-01T18:24:04.271Z,2.08
2022-10-01T18:26:31.846Z,2.13
2022-10-01T18:28:58.362Z,2.75
2022-10-01T18:31:35.481Z,1.70
2022-10-01T18:34:05.902Z,2.30
2022-10-01T18:36:55.647Z,2.35
2022-10-01T18:39:36.763Z,2.20
2022-10-01T18:42:14.407Z,2.00
2022-10-01T18:44:40.891Z,2.22
2022-10-01T18:47:12.386Z,2.20
2022-10-01T18:49:54.000Z,2.13
2022-10-01T18:53:04.563Z,2.20
2022-10-01T18:55:45.672Z,2.00
2022-10-01T18:59:03.679Z,2.30
2022-10-01T19:01:30.163Z,2.33
2022-10-01T19:04:09.442Z,2.63
2022-10-01T19:06:44.923Z,2.50
2022-10-01T19:09:34.580Z,2.13
2022-10-01T19:12:20.589Z,1.90
2022-10-01T19:15:13.758Z,2.25
2022-10-01T19:17:57.250Z,2.50
2022-10-01T19:20:49.885Z,2.75
2022-10-01T19:23:49.332Z,2.60
2022-10-01T19:26:25.794Z,2.20
2022-10-01T19:28:55.209Z,2.22
2022-10-01T19:31:47.938Z,1.80
2022-10-01T19:34:22.332Z,1.77
2022-10-01T19:36:55.003Z,1.70
2022-10-01T19:39:25.943Z,2.10
2022-10-01T19:41:59.137Z,1.95
2022-10-01T19:44:53.877Z,2.25
2022-10-01T19:47:40.991Z,1.85
2022-10-01T19:50:28.963Z,2.90
2022-10-01T19:52:58.239Z,2.55
2022-10-01T19:55:25.901Z,2.72
2022-10-01T19:57:52.959Z,2.20
2022-10-01T20:00:21.777Z,3.25
2022-10-01T20:03:13.598Z,2.15
2022-10-01T20:05:47.196Z,3.05
2022-10-01T20:08:28.927Z,3.15
2022-10-01T20:11:01.235Z,3.28
2022-10-01T20:14:40.893Z,3.20
2022-10-01T20:17:24.995Z,3.30
2022-10-01T20:20:16.221Z,2.75
2022-10-01T20:22:53.879Z,2.60
2022-10-01T20:25:57.997Z,3.22
2022-10-01T20:28:36.548Z,3.17
2022-10-01T20:31:27.249Z,4.22
2022-10-01T20:34:19.485Z,4.18
2022-10-01T20:36:56.790Z,4.75
2022-10-01T20:39:31.065Z,2.20
2022-10-01T20:41:58.225Z,4.07
2022-10-01T20:44:43.761Z,3.88
2022-10-01T20:47:44.310Z,3.08
2022-10-01T20:50:17.929Z,4.05
2022-10-01T20:53:03.239Z,3.30
2022-10-01T20:55:40.752Z,3.75
2022-10-01T20:58:15.193Z,4.32
2022-10-01T21:00:43.889Z,2.45
2022-10-01T21:03:24.057Z,2.63
2022-10-01T21:05:56.635Z,3.95
2022-10-01T21:08:47.389Z,3.85
2022-10-01T21:11:32.175Z,1.80
2022-10-01T21:14:21.549Z,3.78
2022-10-01T21:17:22.206Z,2.63
2022-10-01T21:19:48.616Z,3.00
2022-10-01T21:22:27.185Z,2.28
2022-10-01T21:25:18.991Z,2.25
2022-10-01T21:28:10.456Z,3.95
2022-10-01T21:30:58.212Z,3.85
2022-10-01T21:33:30.521Z,4.00
2022-10-01T21:36:03.277Z,4.18
2022-10-01T21:38:37.982Z,4.13
2022-10-01T21:41:23.127Z,4.57
2022-10-01T21:43:58.473Z,4.28
2022-10-01T21:46:47.203Z,5.00
2022-10-01T21:49:51.371Z,4.60
2022-10-01T21:52:30.484Z,4.43
2022-10-01T21:55:13.722Z,4.38
2022-10-01T21:57:48.212Z,4.90
2022-10-01T22:00:24.027Z,4.20
2022-10-01T22:02:53.625Z,3.83
2022-10-01T22:06:01.699Z,4.00
2022-10-01T22:08:37.194Z,4.78
2022-10-01T22:11:11.001Z,4.70
2022-10-01T22:13:45.952Z,5.18
2022-10-01T22:16:14.675Z,5.43
2022-10-01T22:18:46.105Z,3.22
2022-10-01T22:21:17.394Z,4.57
2022-10-01T22:23:57.948Z,4.50
2022-10-01T22:26:29.266Z,4.93
2022-10-01T22:28:56.752Z,4.88
2022-10-01T22:31:27.896Z,4.45
2022-10-01T22:33:59.944Z,5.13
2022-10-01T22:36:36.455Z,5.45
2022-10-01T22:39:19.482Z,4.68
2022-10-01T22:41:52.067Z,5.50
2022-10-01T22:44:20.719Z,5.53
2022-10-01T22:46:50.260Z,4.88
2022-10-01T22:49:48.358Z,4.85
2022-10-01T22:52:20.502Z,5.55
2022-10-01T22:55:09.459Z,5.75
2022-10-01T22:57:57.521Z,5.95
2022-10-01T23:00:24.199Z,6.25
2022-10-01T23:02:56.360Z,5.60
2022-10-01T23:05:57.685Z,6.57
2022-10-01T23:08:35.911Z,5.25
2022-10-01T23:11:25.202Z,5.13
2022-10-01T23:14:16.021Z,4.47
2022-10-01T23:17:01.798Z,3.83
2022-10-01T23:20:13.331Z,3.30
2022-10-01T23:23:01.353Z,3.17
2022-10-01T23:25:58.421Z,2.80
2022-10-01T23:28:49.627Z,2.70
2022-10-01T23:31:25.524Z,2.50
2022-10-01T23:34:18.256Z,2.22
2022-10-01T23:36:53.297Z,2.05
2022-10-01T23:39:35.354Z,1.95
2022-10-01T23:42:19.435Z,2.55
2022-10-01T23:45:17.525Z,1.50
2022-10-01T23:47:57.556Z,1.33
2022-10-01T23:50:32.375Z,1.60
2022-10-01T23:53:13.098Z,1.55
2022-10-01T23:56:10.770Z,1.85
2022-10-01T23:58:51.767Z,1.60
